createdAt,value
2018-06-28T13:38:33.210Z,101116.48
2018-06-28T13:39:34.011Z,101115.79
2018-06-28T13:40:34.780Z,101115.36
2018-06-28T13:41:36.074Z,101115.55
2018-06-28T13:42:35.321Z,101115.55
2018-06-28T13:43:37.095Z,101116.19
2018-06-28T13:44:37.894Z,101115.51
2018-06-28T13:45:38.662Z,101115.11
2018-06-28T13:46:39.439Z,101114.47
2018-06-28T13:47:40.208Z,101114.50
2018-06-28T13:48:40.991Z,101114.18
2018-06-28T13:49:41.771Z,101113.95
2018-06-28T13:50:42.544Z,101113.59
2018-06-28T13:51:43.313Z,101112.81
2018-06-28T13:52:44.087Z,101112.16
2018-06-28T13:53:44.895Z,101110.96
2018-06-28T13:54:45.653Z,101109.44
2018-06-28T13:55:46.425Z,101107.64
2018-06-28T13:56:47.195Z,101106.17
2018-06-28T13:57:48.062Z,101105.05
2018-06-28T13:58:47.738Z,101103.86
2018-06-28T13:59:49.532Z,101102.48
2018-06-28T14:00:49.307Z,101101.98
2018-06-28T14:01:51.083Z,101099.98
2018-06-28T14:02:51.850Z,101099.05
2018-06-28T14:03:52.629Z,101097.61
2018-06-28T14:04:53.420Z,101096.55
2018-06-28T14:05:54.192Z,101095.63
2018-06-28T14:06:54.966Z,101094.31
2018-06-28T14:07:55.738Z,101092.72
2018-06-28T14:08:56.510Z,101091.68
2018-06-28T14:09:57.306Z,101090.05
2018-06-28T14:10:58.081Z,101088.66
2018-06-28T14:11:58.855Z,101087.45
2018-06-28T14:12:59.625Z,101086.16
2018-06-28T14:14:00.403Z,101085.02
2018-06-28T14:15:01.194Z,101083.37
2018-06-28T14:16:01.967Z,101082.28
2018-06-28T14:17:02.743Z,101081.16
2018-06-28T14:18:03.523Z,101079.86
2018-06-28T14:19:04.287Z,101078.91
2018-06-28T14:20:05.085Z,101077.56
2018-06-28T14:21:05.856Z,101076.86
2018-06-28T14:22:06.714Z,101075.39
2018-06-28T14:23:06.402Z,101074.16
2018-06-28T14:24:08.182Z,101072.88
2018-06-28T14:25:08.971Z,101071.41
2018-06-28T14:26:09.744Z,101069.95
2018-06-28T14:27:10.518Z,101068.66
2018-06-28T14:28:11.288Z,101067.55
2018-06-28T14:29:12.074Z,101066.31
2018-06-28T14:30:12.860Z,101065.02
2018-06-28T14:31:13.634Z,101063.72
2018-06-28T14:32:46.703Z,101040.80
2018-06-28T14:33:47.475Z,101039.48
2018-06-28T14:34:48.248Z,101039.66
2018-06-28T14:36:22.956Z,101038.23
2018-06-28T14:37:21.719Z,101038.48
2018-06-28T14:38:22.491Z,101037.81
2018-06-28T14:39:23.262Z,101037.57
2018-06-28T14:40:24.029Z,101036.86
2018-06-28T14:41:24.825Z,101036.66
2018-06-28T14:42:25.599Z,101035.92
2018-06-28T14:43:26.370Z,101035.01
2018-06-28T14:44:27.142Z,101034.11
2018-06-28T14:45:27.917Z,101033.27
2018-06-28T14:46:28.718Z,101032.86
2018-06-28T14:47:29.529Z,101031.86
2018-06-28T14:48:29.256Z,101031.22
2018-06-28T14:49:31.027Z,101030.37
2018-06-28T14:50:31.861Z,101029.89
2018-06-28T14:51:31.597Z,101029.96
2018-06-28T14:52:33.369Z,101029.58
2018-06-28T14:53:34.141Z,101029.69
2018-06-28T14:54:34.923Z,101029.09
2018-06-28T14:55:35.686Z,101028.73
2018-06-28T14:56:36.496Z,101028.39
2018-06-28T14:57:37.260Z,101027.84
2018-06-28T14:58:38.083Z,101027.84
2018-06-28T14:59:37.805Z,101027.04
2018-06-28T15:00:39.578Z,101026.63
2018-06-28T15:01:40.376Z,101024.94
2018-06-28T15:02:41.151Z,101023.61
2018-06-28T15:03:41.924Z,101021.95
2018-06-28T15:04:42.692Z,101020.58
2018-06-28T15:05:43.466Z,101019.74
2018-06-28T15:06:44.262Z,101018.38
2018-06-28T15:07:45.034Z,101016.73
2018-06-28T15:08:45.812Z,101015.63
2018-06-28T15:09:46.582Z,101014.52
2018-06-28T15:10:47.352Z,101013.22
2018-06-28T15:11:48.149Z,101012.06
2018-06-28T15:12:48.923Z,101011.50
2018-06-28T15:13:49.695Z,101010.17
2018-06-28T15:14:50.468Z,101009.65
2018-06-28T15:15:51.243Z,101008.36
2018-06-28T15:16:52.038Z,101007.25
2018-06-28T15:17:52.811Z,101006.28
2018-06-28T15:18:53.585Z,101005.62
2018-06-28T15:19:54.356Z,101004.72
2018-06-28T15:20:55.129Z,101004.28
2018-06-28T15:21:55.924Z,101003.34
2018-06-28T15:22:56.699Z,101003.44
2018-06-28T15:23:57.470Z,101002.76
2018-06-28T15:24:57.245Z,101002.24
2018-06-28T15:25:59.017Z,101001.94
2018-06-28T15:26:59.817Z,101001.70
2018-06-28T15:28:00.585Z,101001.78
2018-06-28T15:29:01.359Z,101001.38
2018-06-28T15:30:02.134Z,101001.12
2018-06-28T15:31:02.908Z,101001.62
2018-06-28T15:32:03.705Z,101001.66
2018-06-28T15:33:04.575Z,101001.89
2018-06-28T15:34:04.248Z,101001.92
2018-06-28T15:35:06.026Z,101001.80
2018-06-28T15:36:06.794Z,101001.55
2018-06-28T15:37:07.590Z,101001.68
2018-06-28T15:38:08.362Z,101001.80
2018-06-28T15:39:09.135Z,101001.72
2018-06-28T15:40:09.912Z,101001.59
2018-06-28T15:41:10.679Z,101001.34
2018-06-28T15:42:11.478Z,101000.64
2018-06-28T15:43:12.249Z,101000.26
2018-06-28T15:44:13.022Z,100999.44
2018-06-28T15:45:13.797Z,100999.05
2018-06-28T15:46:14.568Z,100998.76
2018-06-28T15:47:15.368Z,100998.26
2018-06-28T15:48:16.142Z,100997.15
2018-06-28T15:49:16.913Z,100996.48
2018-06-28T15:50:17.691Z,100995.48
2018-06-28T15:51:18.458Z,100995.02
2018-06-28T15:52:19.254Z,100993.77
2018-06-28T15:53:20.030Z,100992.39
2018-06-28T15:54:20.798Z,100991.00
2018-06-28T15:55:21.578Z,100990.13
2018-06-28T15:56:22.346Z,100988.59
2018-06-28T15:57:23.197Z,100987.37
2018-06-28T15:58:22.914Z,100986.35
2018-06-28T15:59:24.686Z,100985.17
2018-06-28T16:00:25.458Z,100984.20
2018-06-28T16:01:26.234Z,100983.18
2018-06-28T16:02:27.031Z,100982.92
2018-06-28T16:03:27.801Z,100981.58
2018-06-28T16:04:28.575Z,100980.68
2018-06-28T16:05:29.346Z,100979.96
2018-06-28T16:06:30.117Z,100978.72
2018-06-28T16:07:30.918Z,100977.89
2018-06-28T16:08:31.687Z,100977.38
2018-06-28T16:09:32.463Z,100976.78
2018-06-28T16:10:33.238Z,100975.89
2018-06-28T16:11:34.007Z,100975.38
2018-06-28T16:12:34.805Z,100974.62
2018-06-28T16:13:35.577Z,100973.63
2018-06-28T16:14:36.350Z,100972.13
2018-06-28T16:15:37.123Z,100970.84
2018-06-28T16:16:37.893Z,100969.23
2018-06-28T16:17:38.692Z,100968.20
2018-06-28T16:18:39.464Z,100967.05
2018-06-28T16:19:40.238Z,100965.70
2018-06-28T16:20:41.007Z,100964.28
2018-06-28T16:21:41.783Z,100963.55
2018-06-28T16:22:42.584Z,100962.46
2018-06-28T16:23:43.353Z,100961.38
2018-06-28T16:24:44.130Z,100960.91
2018-06-28T16:25:44.900Z,100959.95
2018-06-28T16:26:45.672Z,100958.58
2018-06-28T16:27:46.471Z,100958.19
2018-06-28T16:28:47.622Z,100957.75
2018-06-28T16:31:43.769Z,100950.58
2018-06-28T16:32:44.577Z,100946.77
2018-06-28T16:33:45.349Z,100947.36
2018-06-28T16:34:46.123Z,100947.19
2018-06-28T16:35:46.901Z,100947.28
2018-06-28T16:36:47.665Z,100947.28
2018-06-28T16:37:48.468Z,100947.67
2018-06-28T16:38:49.235Z,100947.53
2018-06-28T16:39:50.006Z,100947.16
2018-06-28T16:40:50.778Z,100947.39
2018-06-28T16:41:51.552Z,100947.35
2018-06-28T16:42:52.345Z,100947.35
2018-06-28T16:43:53.118Z,100947.15
2018-06-28T16:44:53.889Z,100947.50
2018-06-28T16:45:54.665Z,100947.19
2018-06-28T16:46:55.442Z,100947.25
2018-06-28T16:47:56.230Z,100947.25
2018-06-28T16:48:57.004Z,100946.73
2018-06-28T16:49:57.778Z,100946.13
2018-06-28T16:50:58.548Z,100945.59
2018-06-28T16:51:59.324Z,100945.01
2018-06-28T16:53:00.121Z,100944.58
2018-06-28T16:54:00.889Z,100944.61
2018-06-28T16:55:01.667Z,100943.80
2018-06-28T16:56:02.433Z,100943.16
2018-06-28T16:57:03.208Z,100942.91
2018-06-28T16:58:04.004Z,100942.73
2018-06-28T16:59:04.819Z,100941.69
2018-06-28T17:00:04.548Z,100941.06
2018-06-28T17:01:06.320Z,100940.30
2018-06-28T17:02:07.095Z,100939.84
2018-06-28T17:03:07.887Z,100939.33
2018-06-28T17:04:08.666Z,100938.96
2018-06-28T17:05:09.436Z,100938.59
2018-06-28T17:06:10.212Z,100938.02
2018-06-28T17:07:10.985Z,100937.41
2018-06-28T17:08:11.783Z,100936.53
2018-06-28T17:09:12.553Z,100936.14
2018-06-28T17:10:13.329Z,100935.72
2018-06-28T17:11:14.105Z,100935.37
2018-06-28T17:12:14.871Z,100934.33
2018-06-28T17:13:15.665Z,100933.36
2018-06-28T17:14:16.456Z,100932.16
2018-06-28T17:15:16.213Z,100930.94
2018-06-28T17:16:17.991Z,100929.31
2018-06-28T17:17:18.761Z,100928.59
2018-06-28T17:18:19.563Z,100927.70
2018-06-28T17:19:20.340Z,100926.84
2018-06-28T17:20:21.225Z,100925.77
2018-06-28T17:21:20.888Z,100925.19
2018-06-28T17:22:22.660Z,100924.84
2018-06-28T17:23:23.453Z,100924.45
2018-06-28T17:24:24.226Z,100924.34
2018-06-28T17:25:25.001Z,100924.20
2018-06-28T17:26:25.771Z,100923.92
2018-06-28T17:27:26.545Z,100923.64
2018-06-28T17:28:27.341Z,100923.73
2018-06-28T17:29:28.114Z,100923.88
2018-06-28T17:30:28.887Z,100923.62
2018-06-28T17:31:29.658Z,100924.28
2018-06-28T17:32:30.438Z,100924.47
2018-06-28T17:33:31.230Z,100924.91
2018-06-28T17:34:32.000Z,100924.73
2018-06-28T17:35:32.772Z,100924.80
2018-06-28T17:36:33.546Z,100925.83
2018-06-28T17:37:34.325Z,100926.54
2018-06-28T17:38:35.129Z,100927.45
2018-06-28T17:39:35.891Z,100927.89
2018-06-28T17:40:36.664Z,100928.47
2018-06-28T17:41:37.437Z,100928.73
2018-06-28T17:42:38.218Z,100929.20
2018-06-28T17:43:39.016Z,100929.52
2018-06-28T17:44:39.780Z,100929.94
2018-06-28T17:45:40.555Z,100930.14
2018-06-28T17:46:41.329Z,100930.34
2018-06-28T17:47:42.105Z,100930.45
2018-06-28T17:48:42.904Z,100930.68
2018-06-28T17:49:43.694Z,100930.60
2018-06-28T17:50:43.508Z,100930.67
2018-06-28T17:51:44.226Z,100930.39
2018-06-28T17:52:45.996Z,100929.98
2018-06-28T17:53:46.793Z,100929.81
2018-06-28T17:54:47.565Z,100929.47
2018-06-28T17:55:48.340Z,100928.70
2018-06-28T17:56:49.113Z,100928.56
2018-06-28T17:57:49.885Z,100928.55
2018-06-28T17:58:50.680Z,100928.30
2018-06-28T17:59:51.456Z,100928.37
2018-06-28T18:00:52.227Z,100928.74
2018-06-28T18:01:53.002Z,100928.04
2018-06-28T18:02:53.774Z,100928.37
2018-06-28T18:03:54.578Z,100928.78
2018-06-28T18:04:55.389Z,100928.73
2018-06-28T18:05:55.116Z,100928.71
2018-06-28T18:06:56.891Z,100928.45
2018-06-28T18:07:57.664Z,100928.40
2018-06-28T18:08:58.520Z,100928.77
2018-06-28T18:09:58.238Z,100928.74
2018-06-28T18:11:00.010Z,100928.86
2018-06-28T18:12:00.780Z,100928.42
2018-06-28T18:13:01.554Z,100928.78
2018-06-28T18:14:02.353Z,100928.69
2018-06-28T18:15:03.126Z,100929.43
2018-06-28T18:16:03.897Z,100929.37
2018-06-28T18:17:04.677Z,100929.83
2018-06-28T18:18:05.445Z,100929.59
2018-06-28T18:19:06.238Z,100929.55
2018-06-28T18:20:07.015Z,100929.66
2018-06-28T18:21:07.809Z,100929.95
2018-06-28T18:22:08.585Z,100930.14
2018-06-28T18:23:09.356Z,100930.05
2018-06-28T18:24:10.142Z,100929.89
2018-06-28T18:25:11.290Z,100929.31
2018-06-28T18:33:59.521Z,100934.23
2018-06-28T18:35:00.293Z,100935.66
2018-06-28T18:36:01.072Z,100935.55
2018-06-28T18:37:01.859Z,100935.55
2018-06-28T18:38:02.652Z,100935.30
2018-06-28T18:39:03.403Z,100935.50
2018-06-28T18:40:04.177Z,100935.63
2018-06-28T18:41:04.946Z,100935.16
2018-06-28T18:42:05.744Z,100934.95
2018-06-28T18:43:06.520Z,100934.52
2018-06-28T18:44:07.286Z,100934.77
2018-06-28T18:45:08.101Z,100935.02
2018-06-28T18:46:07.829Z,100934.70
2018-06-28T18:47:09.622Z,100935.03
2018-06-28T18:48:10.396Z,100935.06
2018-06-28T18:49:11.165Z,100935.39
2018-06-28T18:50:11.942Z,100935.23
2018-06-28T18:51:12.708Z,100935.48
2018-06-28T18:52:13.504Z,100935.70
2018-06-28T18:53:14.285Z,100936.30
2018-06-28T18:54:15.054Z,100936.03
2018-06-28T18:55:15.822Z,100936.67
2018-06-28T18:56:16.593Z,100936.58
2018-06-28T18:57:17.392Z,100937.11
2018-06-28T18:58:18.163Z,100937.23
2018-06-28T18:59:18.932Z,100937.31
2018-06-28T19:00:19.707Z,100937.28
2018-06-28T19:01:20.483Z,100937.58
2018-06-28T19:02:21.273Z,100937.83
2018-06-28T19:03:22.045Z,100938.11
2018-06-28T19:04:22.825Z,100938.44
2018-06-28T19:05:23.590Z,100938.83
2018-06-28T19:06:24.364Z,100939.07
2018-06-28T19:07:25.162Z,100939.81
2018-06-28T19:08:25.947Z,100940.38
2018-06-28T19:09:26.704Z,100940.82
2018-06-28T19:10:27.478Z,100940.98
2018-06-28T19:11:28.250Z,100941.16
2018-06-28T19:12:29.049Z,100942.13
2018-06-28T19:13:29.824Z,100943.09
2018-06-28T19:14:30.730Z,100943.59
2018-06-28T19:15:30.368Z,100943.95
2018-06-28T19:16:32.140Z,100944.47
2018-06-28T19:17:32.939Z,100944.63
2018-06-28T19:18:33.709Z,100945.06
2018-06-28T19:19:34.488Z,100945.36
2018-06-28T19:20:35.259Z,100945.75
2018-06-28T19:21:36.029Z,100946.13
2018-06-28T19:22:36.825Z,100946.23
2018-06-28T19:23:37.596Z,100946.67
2018-06-28T19:24:38.368Z,100946.97
2018-06-28T19:25:39.140Z,100947.28
2018-06-28T19:26:39.912Z,100947.67
2018-06-28T19:27:40.710Z,100947.80
2018-06-28T19:28:41.484Z,100948.70
2018-06-28T19:29:42.260Z,100948.95
2018-06-28T19:30:43.030Z,100949.36
2018-06-28T19:31:43.801Z,100949.73
2018-06-28T19:32:44.595Z,100950.15
2018-06-28T19:33:48.120Z,100950.66
2018-06-28T19:34:45.891Z,100951.11
2018-06-28T19:35:46.714Z,100951.94
2018-06-28T19:36:46.437Z,100953.00
2018-06-28T19:37:48.233Z,100953.84
2018-06-28T19:38:49.001Z,100954.10
2018-06-28T19:39:49.776Z,100955.05
2018-06-28T19:40:50.549Z,100956.17
2018-06-28T19:41:51.323Z,100957.02
2018-06-28T19:42:52.119Z,100957.78
2018-06-28T19:43:52.890Z,100959.00
2018-06-28T19:44:53.664Z,100959.88
2018-06-28T19:45:54.439Z,100960.89
2018-06-28T19:46:55.207Z,100961.38
2018-06-28T19:47:56.003Z,100962.70
2018-06-28T19:48:56.773Z,100964.72
2018-06-28T19:49:57.549Z,100965.91
2018-06-28T19:50:58.319Z,100966.98
2018-06-28T19:51:59.093Z,100968.05
2018-06-28T19:52:59.884Z,100969.34
2018-06-28T19:54:00.668Z,100970.27
2018-06-28T19:55:01.435Z,100971.28
2018-06-28T19:56:02.201Z,100972.85
2018-06-28T19:57:02.974Z,100973.90
2018-06-28T19:58:03.779Z,100974.85
2018-06-28T19:59:04.544Z,100976.35
2018-06-28T20:00:05.350Z,100977.05
2018-06-28T20:01:05.086Z,100978.80
2018-06-28T20:02:06.860Z,100980.22
2018-06-28T20:03:07.659Z,100981.30
2018-06-28T20:04:08.427Z,100982.92
2018-06-28T20:05:09.202Z,100983.86
2018-06-28T20:06:09.972Z,100984.98
2018-06-28T20:07:10.742Z,100985.91
2018-06-28T20:08:11.541Z,100986.97
2018-06-28T20:09:12.312Z,100988.24
2018-06-28T20:10:13.085Z,100989.94
2018-06-28T20:11:13.856Z,100991.22
2018-06-28T20:12:14.629Z,100992.70
2018-06-28T20:13:15.426Z,100994.58
2018-06-28T20:14:16.198Z,100996.00
2018-06-28T20:15:16.975Z,100997.38
2018-06-28T20:16:17.756Z,100999.02
2018-06-28T20:17:18.511Z,101000.86
2018-06-28T20:18:19.310Z,101001.99
2018-06-28T20:19:20.107Z,101003.72
2018-06-28T20:20:20.861Z,101005.16
2018-06-28T20:21:21.630Z,101006.42
2018-06-28T20:22:22.407Z,101007.48
2018-06-28T20:23:23.215Z,101008.60
2018-06-28T20:24:24.383Z,101009.64
2018-06-28T20:25:31.933Z,101029.84
2018-06-28T20:26:32.700Z,101031.58
2018-06-28T20:27:33.470Z,101031.06
2018-06-28T20:28:34.355Z,101030.27
2018-06-28T20:29:34.048Z,101030.17
2018-06-28T20:30:35.819Z,101030.57
2018-06-28T20:31:36.586Z,101030.26
2018-06-28T20:32:37.356Z,101030.48
2018-06-28T20:33:38.153Z,101030.14
2018-06-28T20:34:38.924Z,101029.75
2018-06-28T20:35:40.702Z,101029.60
2018-06-28T20:36:40.468Z,101029.75
2018-06-28T20:37:41.242Z,101030.13
2018-06-28T20:38:42.047Z,101030.36
2018-06-28T20:39:42.819Z,101030.73
2018-06-28T20:40:43.590Z,101030.49
2018-06-28T20:41:44.362Z,101030.47
2018-06-28T20:42:45.133Z,101030.61
2018-06-28T20:43:45.927Z,101030.92
2018-06-28T20:44:46.699Z,101030.75
2018-06-28T20:45:47.470Z,101031.17
2018-06-28T20:46:48.272Z,101031.79
2018-06-28T20:47:48.100Z,101032.34
2018-06-28T20:48:49.736Z,101032.66
2018-06-28T20:49:50.552Z,101033.46
2018-06-28T20:50:50.319Z,101033.39
2018-06-28T20:51:51.042Z,101034.27
2018-06-28T20:52:52.821Z,101034.23
2018-06-28T20:53:53.803Z,101034.95
2018-06-28T20:54:53.385Z,101035.09
2018-06-28T20:55:55.159Z,101035.81
2018-06-28T20:56:55.934Z,101036.50
2018-06-28T20:57:56.704Z,101037.27
2018-06-28T20:58:57.525Z,101037.64
2018-06-28T20:59:58.272Z,101038.33
2018-06-28T21:00:59.049Z,101039.06
2018-06-28T21:01:59.821Z,101039.84
2018-06-28T21:03:00.592Z,101040.48
2018-06-28T21:04:01.389Z,101041.09
2018-06-28T21:05:02.174Z,101041.33
2018-06-28T21:06:02.935Z,101041.69
2018-06-28T21:07:03.940Z,101041.80
2018-06-28T21:08:03.779Z,101042.28
2018-06-28T21:09:04.498Z,101042.65
2018-06-28T21:10:06.268Z,101042.94
2018-06-28T21:11:07.044Z,101043.69
2018-06-28T21:12:07.815Z,101044.16
2018-06-28T21:13:08.596Z,101044.87
2018-06-28T21:14:09.382Z,101045.51
2018-06-28T21:15:10.281Z,101045.73
2018-06-28T21:16:09.986Z,101046.54
2018-06-28T21:17:11.762Z,101046.66
2018-06-28T21:18:12.533Z,101047.20
2018-06-28T21:19:13.590Z,101047.20
2018-06-28T21:20:16.610Z,101047.98
2018-06-28T21:21:13.527Z,101048.02
2018-06-28T21:22:14.356Z,101047.81
2018-06-28T21:23:15.230Z,101048.08
2018-06-28T21:24:20.161Z,101047.44
2018-06-28T21:25:18.164Z,101047.64
2018-06-28T21:26:18.073Z,101047.83
2018-06-28T21:27:18.971Z,101048.14
2018-06-28T21:28:19.924Z,101048.16
2018-06-28T21:29:20.731Z,101048.16
2018-06-28T21:30:22.565Z,101047.77
2018-06-28T21:31:22.529Z,101047.72
2018-06-28T21:32:23.224Z,101047.36
2018-06-28T21:33:25.001Z,101046.97
2018-06-28T21:34:25.801Z,101046.81
2018-06-28T21:35:26.609Z,101047.05
2018-06-28T21:36:27.483Z,101047.33
2018-06-28T21:37:28.258Z,101047.36
2018-06-28T21:38:29.029Z,101048.19
2018-06-28T21:39:29.827Z,101048.80
2018-06-28T21:40:30.599Z,101048.96
2018-06-28T21:41:31.413Z,101049.34
2018-06-28T21:42:31.155Z,101049.81
2018-06-28T21:43:32.926Z,101050.58
2018-06-28T21:44:33.729Z,101051.25
2018-06-28T21:45:34.614Z,101051.16
2018-06-28T21:46:34.410Z,101051.54
2018-06-28T21:47:35.157Z,101051.84
2018-06-28T21:48:36.931Z,101052.17
2018-06-28T21:49:37.730Z,101052.73
2018-06-28T21:50:38.552Z,101052.47
2018-06-28T21:51:38.336Z,101052.61
2018-06-28T21:52:39.190Z,101052.51
2018-06-28T21:53:40.071Z,101052.48
2018-06-28T21:54:40.788Z,101052.65
2018-06-28T21:55:42.564Z,101053.14
2018-06-28T21:56:43.336Z,101053.06
2018-06-28T21:57:44.115Z,101053.14
2018-06-28T21:58:44.908Z,101053.31
2018-06-28T21:59:45.679Z,101053.23
2018-06-28T22:00:46.537Z,101052.81
2018-06-28T22:01:46.229Z,101053.03
2018-06-28T22:02:48.000Z,101053.02
2018-06-28T22:03:48.881Z,101053.03
2018-06-28T22:04:48.625Z,101053.47
2018-06-28T22:05:50.404Z,101053.86
2018-06-28T22:06:51.173Z,101053.66
2018-06-28T22:07:52.003Z,101053.27
2018-06-28T22:08:51.716Z,101053.19
2018-06-28T22:09:53.516Z,101052.70
2018-06-28T22:10:54.291Z,101052.67
2018-06-28T22:11:55.063Z,101052.74
2018-06-28T22:12:55.839Z,101052.91
2018-06-28T22:13:56.609Z,101053.02
2018-06-28T22:14:57.414Z,101052.80
2018-06-28T22:15:58.192Z,101052.36
2018-06-28T22:16:58.957Z,101052.20
2018-06-28T22:17:59.730Z,101052.17
2018-06-28T22:19:00.534Z,101051.98
2018-06-28T22:20:02.359Z,101051.95
2018-06-28T22:21:02.127Z,101051.09
2018-06-28T22:22:02.905Z,101051.50
2018-06-28T22:23:03.671Z,101051.32
2018-06-28T22:24:04.445Z,101051.20
2018-06-28T22:25:05.242Z,101051.05
2018-06-28T22:26:06.033Z,101051.36
2018-06-28T22:27:05.785Z,101050.90
2018-06-28T22:28:07.557Z,101050.58
2018-06-28T22:29:08.329Z,101050.75
2018-06-28T22:30:09.127Z,101051.14
2018-06-28T22:31:09.895Z,101050.42
2018-06-28T22:32:10.666Z,101050.02
2018-06-28T22:33:11.441Z,101049.66
2018-06-28T22:34:12.237Z,101049.19
2018-06-28T22:35:12.013Z,101048.25
2018-06-28T22:36:13.779Z,101047.73
2018-06-28T22:37:14.554Z,101046.59
2018-06-28T22:38:15.328Z,101045.83
2018-06-28T22:39:16.096Z,101045.06
2018-06-28T22:40:15.894Z,101044.64
2018-06-28T22:41:18.042Z,101043.75
2018-06-28T22:42:42.302Z,101035.92
2018-06-28T22:43:42.205Z,101032.63
2018-06-28T22:44:42.886Z,101032.44
2018-06-28T22:45:44.687Z,101032.66
2018-06-28T22:46:45.436Z,101033.08
2018-06-28T22:47:46.207Z,101033.25
2018-06-28T22:48:46.977Z,101033.52
2018-06-28T22:49:47.751Z,101033.98
2018-06-28T22:50:48.552Z,101034.17
2018-06-28T22:51:49.325Z,101034.59
2018-06-28T22:52:50.097Z,101034.73
2018-06-28T22:53:50.869Z,101035.14
2018-06-28T22:54:51.886Z,101035.55
2018-06-28T22:55:51.603Z,101035.80
2018-06-28T22:56:53.381Z,101035.67
2018-06-28T22:57:54.151Z,101035.77
2018-06-28T22:58:55.920Z,101036.00
2018-06-28T22:59:55.696Z,101035.95
2018-06-28T23:00:56.491Z,101035.88
2018-06-28T23:01:57.260Z,101036.41
2018-06-28T23:02:58.032Z,101037.15
2018-06-28T23:03:58.806Z,101037.31
2018-06-28T23:04:59.580Z,101037.00
2018-06-28T23:06:00.378Z,101037.78
2018-06-28T23:07:01.156Z,101038.13
2018-06-28T23:08:01.920Z,101038.69
2018-06-28T23:09:02.690Z,101039.15
2018-06-28T23:10:03.462Z,101039.66
2018-06-28T23:11:04.258Z,101039.28
2018-06-28T23:12:05.032Z,101039.63
2018-06-28T23:13:05.802Z,101039.89
2018-06-28T23:14:06.572Z,101039.89
2018-06-28T23:15:07.342Z,101040.23
2018-06-28T23:16:08.145Z,101040.36
2018-06-28T23:17:08.914Z,101041.56
2018-06-28T23:18:09.692Z,101041.83
2018-06-28T23:19:10.488Z,101041.58
2018-06-28T23:20:10.231Z,101041.63
2018-06-28T23:21:12.025Z,101041.97
2018-06-28T23:22:13.797Z,101042.23
2018-06-28T23:23:13.572Z,101042.09
2018-06-28T23:24:14.339Z,101042.43
2018-06-28T23:25:15.111Z,101042.43
2018-06-28T23:26:15.908Z,101042.27
2018-06-28T23:27:16.679Z,101042.09
2018-06-28T23:28:17.463Z,101042.34
2018-06-28T23:29:18.226Z,101042.75
2018-06-28T23:30:19.011Z,101042.83
2018-06-28T23:31:19.799Z,101043.22
2018-06-28T23:32:20.570Z,101043.00
2018-06-28T23:33:21.344Z,101042.59
2018-06-28T23:34:22.114Z,101042.41
2018-06-28T23:35:22.886Z,101042.43
2018-06-28T23:36:23.680Z,101042.36
2018-06-28T23:37:24.454Z,101042.59
2018-06-28T23:38:25.223Z,101043.27
2018-06-28T23:39:25.994Z,101042.97
2018-06-28T23:40:26.767Z,101043.62
2018-06-28T23:41:27.564Z,101044.02
2018-06-28T23:42:28.336Z,101044.82
2018-06-28T23:43:29.178Z,101045.03
2018-06-28T23:44:28.888Z,101045.88
2018-06-28T23:45:30.660Z,101046.46
2018-06-28T23:46:31.455Z,101046.86
2018-06-28T23:47:32.233Z,101047.13
2018-06-28T23:48:33.008Z,101047.13
2018-06-28T23:49:33.779Z,101046.77
2018-06-28T23:50:34.550Z,101046.69
2018-06-28T23:51:35.343Z,101047.20
2018-06-28T23:52:36.119Z,101046.95
2018-06-28T23:53:36.889Z,101046.70
2018-06-28T23:54:37.659Z,101047.22
2018-06-28T23:55:38.432Z,101047.95
2018-06-28T23:56:39.227Z,101048.30
2018-06-28T23:57:40.002Z,101048.81
2018-06-28T23:58:40.778Z,101049.33
2018-06-28T23:59:41.546Z,101050.01
